createdAt,value
2018-01-27T00:01:28.772Z,53.13
2018-01-27T00:03:56.265Z,53.30
2018-01-27T00:06:23.739Z,54.70
2018-01-27T00:08:51.239Z,52.03
2018-01-27T00:11:18.727Z,54.47
2018-01-27T00:13:51.182Z,54.80
2018-01-27T00:16:18.765Z,57.90
2018-01-27T00:18:46.233Z,56.80
2018-01-27T00:21:13.845Z,58.53
2018-01-27T00:23:41.385Z,59.57
2018-01-27T00:26:08.885Z,63.50
2018-01-27T00:28:36.418Z,59.60
2018-01-27T00:31:03.889Z,60.67
2018-01-27T00:33:31.366Z,61.37
2018-01-27T00:35:58.930Z,62.87
2018-01-27T00:38:26.502Z,62.03
2018-01-27T00:40:53.968Z,62.73
2018-01-27T00:43:21.469Z,61.77
2018-01-27T00:45:48.941Z,61.27
2018-01-27T00:48:16.401Z,64.03
2018-01-27T00:50:44.006Z,62.57
2018-01-27T00:53:11.486Z,62.33
2018-01-27T00:55:38.973Z,65.67
2018-01-27T00:58:06.436Z,61.67
2018-01-27T01:00:33.910Z,63.60
2018-01-27T01:03:01.399Z,64.53
2018-01-27T01:05:28.870Z,67.30
2018-01-27T01:07:56.350Z,63.33
2018-01-27T01:10:23.868Z,62.27
2018-01-27T01:12:51.564Z,64.07
2018-01-27T01:15:19.251Z,60.70
2018-01-27T01:17:46.724Z,63.87
2018-01-27T01:20:14.180Z,65.87
2018-01-27T01:22:41.657Z,62.77
2018-01-27T01:25:09.135Z,64.27
2018-01-27T01:27:36.671Z,61.83
2018-01-27T01:30:04.194Z,61.30
2018-01-27T01:32:31.683Z,65.33
2018-01-27T01:34:59.141Z,61.67
2018-01-27T01:37:26.617Z,62.13
2018-01-27T01:39:54.075Z,62.37
2018-01-27T01:42:27.212Z,61.73
2018-01-27T01:44:54.761Z,64.07
2018-01-27T01:47:22.241Z,61.20
2018-01-27T01:49:49.735Z,58.80
2018-01-27T01:52:17.193Z,59.40
2018-01-27T01:54:44.672Z,62.80
2018-01-27T01:57:12.158Z,60.23
2018-01-27T01:59:39.646Z,60.47
2018-01-27T02:02:07.118Z,61.33
2018-01-27T02:04:34.702Z,60.57
2018-01-27T02:07:02.170Z,60.33
2018-01-27T02:09:29.681Z,64.20
2018-01-27T02:11:57.142Z,62.40
2018-01-27T02:14:24.684Z,63.37
2018-01-27T02:16:52.158Z,59.67
2018-01-27T02:19:19.631Z,65.47
2018-01-27T02:21:47.131Z,60.67
2018-01-27T02:24:14.584Z,65.33
2018-01-27T02:26:42.071Z,68.17
2018-01-27T02:29:09.600Z,68.90
2018-01-27T02:31:37.181Z,64.77
2018-01-27T02:34:05.037Z,68.90
2018-01-27T02:36:32.624Z,64.93
2018-01-27T02:39:00.102Z,68.57
2018-01-27T02:41:27.665Z,61.60
2018-01-27T02:43:55.148Z,62.23
2018-01-27T02:46:22.604Z,69.77
2018-01-27T02:48:50.081Z,64.80
2018-01-27T02:51:17.546Z,66.10
2018-01-27T02:53:45.122Z,62.80
2018-01-27T02:56:12.597Z,66.87
2018-01-27T02:58:40.075Z,63.17
2018-01-27T03:01:07.534Z,61.30
2018-01-27T03:03:35.020Z,62.63
2018-01-27T03:06:02.499Z,62.83
2018-01-27T03:08:29.961Z,60.47
2018-01-27T03:10:57.439Z,63.37
2018-01-27T03:13:24.909Z,65.23
2018-01-27T03:15:52.448Z,62.17
2018-01-27T03:18:19.912Z,66.43
2018-01-27T03:20:47.402Z,61.30
2018-01-27T03:23:14.964Z,61.53
2018-01-27T03:25:42.437Z,63.40
2018-01-27T03:28:10.017Z,54.93
2018-01-27T03:30:37.583Z,63.60
2018-01-27T03:33:05.059Z,60.13
2018-01-27T03:35:32.520Z,62.80
2018-01-27T03:38:00.005Z,61.50
2018-01-27T03:40:27.479Z,59.60
2018-01-27T03:42:54.954Z,59.80
2018-01-27T03:45:22.503Z,58.37
2018-01-27T03:47:50.025Z,57.83
2018-01-27T03:50:17.536Z,58.83
2018-01-27T03:52:44.999Z,64.10
2018-01-27T03:55:12.495Z,61.87
2018-01-27T03:57:39.950Z,62.23
2018-01-27T04:00:07.567Z,57.93
2018-01-27T04:02:35.097Z,61.33
2018-01-27T04:05:02.584Z,63.63
2018-01-27T04:07:30.128Z,62.60
2018-01-27T04:09:57.700Z,62.00
2018-01-27T04:12:25.285Z,67.00
2018-01-27T04:14:52.787Z,61.43
2018-01-27T04:17:20.261Z,62.87
2018-01-27T04:19:47.755Z,63.20
2018-01-27T04:22:15.264Z,64.17
2018-01-27T04:24:42.738Z,59.37
2018-01-27T04:27:10.241Z,57.23
2018-01-27T04:29:37.722Z,62.90
2018-01-27T04:32:05.183Z,58.63
2018-01-27T04:34:32.700Z,62.47
2018-01-27T04:37:00.189Z,62.37
2018-01-27T04:39:27.670Z,57.67
2018-01-27T04:41:55.130Z,60.40
2018-01-27T04:44:22.655Z,57.67
2018-01-27T04:46:50.165Z,62.37
2018-01-27T04:49:17.622Z,61.07
2018-01-27T04:51:45.151Z,59.40
2018-01-27T04:54:12.641Z,60.70
2018-01-27T04:56:40.137Z,59.47
2018-01-27T04:59:07.602Z,58.50
2018-01-27T05:01:35.187Z,60.10
2018-01-27T05:04:02.661Z,59.37
2018-01-27T05:06:30.150Z,55.47
2018-01-27T05:08:57.707Z,57.97
2018-01-27T05:11:25.167Z,56.93
2018-01-27T05:13:52.646Z,55.87
2018-01-27T05:16:20.096Z,56.60
2018-01-27T05:18:47.681Z,55.57
2018-01-27T05:21:15.136Z,53.93
2018-01-27T05:23:42.618Z,54.40
2018-01-27T05:26:10.081Z,58.10
2018-01-27T05:28:37.585Z,58.20
2018-01-27T05:31:05.148Z,58.83
2018-01-27T05:33:32.597Z,52.33
2018-01-27T05:36:00.080Z,57.97
2018-01-27T05:38:27.638Z,57.03
2018-01-27T05:40:55.122Z,53.80
2018-01-27T05:43:22.621Z,55.17
2018-01-27T05:45:50.164Z,50.13
2018-01-27T05:48:17.719Z,55.90
2018-01-27T05:50:45.193Z,57.33
2018-01-27T05:53:12.658Z,56.13
2018-01-27T05:55:40.140Z,52.37
2018-01-27T05:58:07.600Z,55.77
2018-01-27T06:00:35.070Z,56.37
2018-01-27T06:03:02.554Z,53.27
2018-01-27T06:05:30.000Z,53.60
2018-01-27T06:07:57.471Z,51.93
2018-01-27T06:10:25.048Z,56.73
2018-01-27T06:12:52.516Z,58.30
2018-01-27T06:15:20.139Z,56.40
2018-01-27T06:17:47.605Z,55.77
2018-01-27T06:20:15.095Z,53.03
2018-01-27T06:22:42.602Z,58.53
2018-01-27T06:25:10.072Z,57.33
2018-01-27T06:27:37.538Z,56.93
2018-01-27T06:30:05.102Z,58.00
2018-01-27T06:32:32.558Z,58.93
2018-01-27T06:35:00.037Z,57.53
2018-01-27T06:37:27.528Z,59.07
2018-01-27T06:39:55.096Z,59.17
2018-01-27T06:42:22.557Z,55.87
2018-01-27T06:44:50.127Z,54.87
2018-01-27T06:47:17.604Z,55.67
2018-01-27T06:49:45.093Z,51.40
2018-01-27T06:52:12.567Z,55.87
2018-01-27T06:54:40.138Z,52.57
2018-01-27T06:57:07.720Z,52.67
2018-01-27T06:59:35.379Z,53.57
2018-01-27T07:02:02.842Z,52.47
2018-01-27T07:04:30.303Z,49.77
2018-01-27T07:06:57.795Z,51.27
2018-01-27T07:09:25.348Z,49.77
2018-01-27T07:11:52.968Z,53.07
2018-01-27T07:14:20.438Z,49.53
2018-01-27T07:16:47.998Z,51.40
2018-01-27T07:19:15.551Z,46.40
2018-01-27T07:21:43.113Z,51.60
2018-01-27T07:24:10.591Z,52.03
2018-01-27T07:26:38.153Z,48.73
2018-01-27T07:29:05.777Z,56.90
2018-01-27T07:31:33.236Z,49.53
2018-01-27T07:34:00.780Z,49.37
2018-01-27T07:36:28.237Z,49.90
2018-01-27T07:38:55.781Z,46.73
2018-01-27T07:41:23.261Z,48.50
2018-01-27T07:43:50.767Z,54.53
2018-01-27T07:46:18.256Z,48.20
2018-01-27T07:48:45.799Z,47.73
2018-01-27T07:51:13.371Z,47.77
2018-01-27T07:53:40.932Z,48.67
2018-01-27T07:56:08.422Z,48.87
2018-01-27T07:58:36.012Z,50.97
2018-01-27T08:01:03.545Z,46.33
2018-01-27T08:03:31.016Z,49.57
2018-01-27T08:05:58.488Z,50.73
2018-01-27T08:08:26.096Z,50.13
2018-01-27T08:10:53.560Z,48.53
2018-01-27T08:13:21.049Z,47.97
2018-01-27T08:15:48.584Z,53.07
2018-01-27T08:18:16.067Z,51.27
2018-01-27T08:20:43.641Z,50.93
2018-01-27T08:23:11.138Z,50.87
2018-01-27T08:25:38.615Z,57.60
2018-01-27T08:28:06.089Z,49.80
2018-01-27T08:30:33.562Z,51.47
2018-01-27T08:33:01.025Z,49.37
2018-01-27T08:35:28.553Z,48.03
2018-01-27T08:37:56.002Z,49.80
2018-01-27T08:40:23.493Z,53.80
2018-01-27T08:42:50.958Z,51.90
2018-01-27T08:45:18.450Z,57.00
2018-01-27T08:47:45.915Z,54.60
2018-01-27T08:50:13.365Z,56.57
2018-01-27T08:52:40.866Z,59.37
2018-01-27T08:55:08.333Z,57.63
2018-01-27T08:57:35.820Z,57.93
2018-01-27T09:00:03.292Z,58.00
2018-01-27T09:02:30.761Z,54.77
2018-01-27T09:04:58.233Z,52.63
2018-01-27T09:07:25.731Z,52.33
2018-01-27T09:09:53.217Z,52.30
2018-01-27T09:12:20.682Z,52.33
2018-01-27T09:14:48.273Z,52.80
2018-01-27T09:17:15.732Z,50.33
2018-01-27T09:19:43.207Z,48.53
2018-01-27T09:22:10.683Z,51.07
2018-01-27T09:24:38.136Z,49.80
2018-01-27T09:27:05.736Z,53.97
2018-01-27T09:29:33.309Z,52.13
2018-01-27T09:32:00.791Z,58.93
2018-01-27T09:34:28.266Z,53.90
2018-01-27T09:36:56.320Z,48.40
2018-01-27T09:39:23.890Z,57.03
2018-01-27T09:41:51.366Z,59.63
2018-01-27T09:44:18.946Z,56.07
2018-01-27T09:46:46.505Z,54.03
2018-01-27T09:49:14.075Z,52.43
2018-01-27T09:51:41.540Z,53.00
2018-01-27T09:54:09.029Z,57.43
2018-01-27T09:56:36.589Z,55.07
2018-01-27T09:59:04.076Z,54.30
2018-01-27T10:01:31.623Z,57.27
2018-01-27T10:03:59.098Z,51.73
2018-01-27T10:06:26.581Z,55.73
2018-01-27T10:08:54.050Z,52.17
2018-01-27T10:11:21.613Z,58.10
2018-01-27T10:13:49.189Z,56.80
2018-01-27T10:16:16.657Z,52.73
2018-01-27T10:18:44.252Z,55.03
2018-01-27T10:21:11.718Z,52.30
2018-01-27T10:23:39.223Z,56.73
2018-01-27T10:26:06.745Z,50.90
2018-01-27T10:28:34.220Z,55.30
2018-01-27T10:31:01.688Z,51.73
2018-01-27T10:33:29.190Z,60.83
2018-01-27T10:35:56.709Z,58.80
2018-01-27T10:38:24.184Z,56.97
2018-01-27T10:40:51.675Z,56.17
2018-01-27T10:43:19.164Z,58.60
2018-01-27T10:45:46.652Z,49.57
2018-01-27T10:48:14.142Z,51.10
2018-01-27T10:50:41.740Z,57.27
2018-01-27T10:53:09.205Z,55.70
2018-01-27T10:55:36.710Z,52.17
2018-01-27T10:58:04.253Z,56.30
2018-01-27T11:00:31.736Z,56.13
2018-01-27T11:02:59.234Z,57.70
2018-01-27T11:05:26.711Z,51.67
2018-01-27T11:07:54.256Z,54.47
2018-01-27T11:10:21.722Z,50.67
2018-01-27T11:12:49.274Z,54.63
2018-01-27T11:15:16.758Z,54.43
2018-01-27T11:17:44.340Z,53.57
2018-01-27T11:20:11.860Z,54.63
2018-01-27T11:22:39.900Z,55.23
2018-01-27T11:25:07.402Z,58.50
2018-01-27T11:27:34.923Z,56.63
2018-01-27T11:30:02.412Z,54.63
2018-01-27T11:32:29.986Z,52.00
2018-01-27T11:34:57.536Z,58.17
2018-01-27T11:37:25.034Z,54.43
2018-01-27T11:39:52.587Z,51.20
2018-01-27T11:42:20.082Z,48.10
2018-01-27T11:44:47.562Z,51.33
2018-01-27T11:47:15.044Z,53.00
2018-01-27T11:49:42.567Z,47.03
2018-01-27T11:52:10.046Z,51.60
2018-01-27T11:54:37.599Z,52.33
2018-01-27T11:57:05.082Z,50.30
2018-01-27T11:59:32.634Z,49.03
2018-01-27T12:02:00.150Z,49.30
2018-01-27T12:04:27.633Z,53.47
2018-01-27T12:06:55.448Z,46.30
2018-01-27T12:09:22.923Z,52.60
2018-01-27T12:11:50.384Z,49.83
2018-01-27T12:14:17.852Z,51.83
2018-01-27T12:16:45.313Z,49.70
2018-01-27T12:19:12.993Z,51.43
2018-01-27T12:21:40.476Z,51.43
2018-01-27T12:24:08.066Z,45.03
2018-01-27T12:26:35.620Z,49.50
2018-01-27T12:29:03.094Z,52.13
2018-01-27T12:31:30.605Z,49.23
2018-01-27T12:33:58.180Z,47.47
2018-01-27T12:36:25.710Z,48.13
2018-01-27T12:38:53.177Z,42.23
2018-01-27T12:41:20.741Z,47.17
2018-01-27T12:43:48.211Z,52.40
2018-01-27T12:46:15.673Z,44.90
2018-01-27T12:48:43.146Z,52.07
2018-01-27T12:51:10.674Z,48.53
2018-01-27T12:53:38.146Z,47.67
2018-01-27T12:56:05.669Z,46.63
2018-01-27T12:58:33.151Z,48.33
2018-01-27T13:01:00.607Z,46.80
2018-01-27T13:03:28.132Z,47.30
2018-01-27T13:05:55.602Z,47.53
2018-01-27T13:08:23.073Z,42.83
2018-01-27T13:10:50.616Z,45.73
2018-01-27T13:13:18.119Z,44.70
2018-01-27T13:15:45.624Z,44.40
2018-01-27T13:18:13.153Z,44.13
2018-01-27T13:20:40.631Z,43.67
2018-01-27T13:23:08.109Z,40.57
2018-01-27T13:25:35.578Z,40.27
2018-01-27T13:28:03.041Z,42.07
2018-01-27T13:30:30.525Z,40.60
2018-01-27T13:32:58.006Z,41.53
2018-01-27T13:35:25.542Z,40.30
2018-01-27T13:37:53.019Z,42.00
2018-01-27T13:40:20.556Z,44.67
2018-01-27T13:42:48.015Z,43.83
2018-01-27T13:45:15.852Z,40.03
2018-01-27T13:47:43.425Z,39.63
2018-01-27T13:50:10.961Z,40.37
2018-01-27T13:52:38.516Z,38.97
2018-01-27T13:55:06.068Z,41.10
2018-01-27T13:57:33.601Z,40.43
2018-01-27T14:00:01.116Z,41.40
2018-01-27T14:02:28.601Z,41.10
2018-01-27T14:04:56.192Z,40.30
2018-01-27T14:07:23.646Z,38.67
2018-01-27T14:09:51.128Z,38.30
2018-01-27T14:12:18.639Z,39.90
2018-01-27T14:14:46.125Z,38.60
2018-01-27T14:17:13.595Z,39.03
2018-01-27T14:19:41.167Z,45.47
2018-01-27T14:22:08.873Z,43.57
2018-01-27T14:24:36.576Z,45.23
2018-01-27T14:27:04.094Z,43.83
2018-01-27T14:29:31.611Z,42.90
2018-01-27T14:31:59.129Z,44.80
2018-01-27T14:34:26.593Z,48.27
2018-01-27T14:36:54.073Z,50.80
2018-01-27T14:39:21.632Z,52.27
2018-01-27T14:41:49.153Z,51.60
2018-01-27T14:44:16.699Z,53.40
2018-01-27T14:46:44.180Z,50.43
2018-01-27T14:49:11.695Z,57.70
2018-01-27T14:51:39.201Z,58.97
2018-01-27T14:54:06.699Z,52.50
2018-01-27T14:56:34.157Z,51.47
2018-01-27T14:59:01.649Z,54.27
2018-01-27T15:01:29.120Z,50.17
2018-01-27T15:03:56.637Z,50.47
2018-01-27T15:06:24.107Z,55.63
2018-01-27T15:08:51.592Z,52.73
2018-01-27T15:11:19.159Z,53.47
2018-01-27T15:13:46.688Z,53.97
2018-01-27T15:16:14.194Z,53.03
2018-01-27T15:18:41.660Z,49.57
2018-01-27T15:21:09.121Z,53.07
2018-01-27T15:23:36.613Z,53.80
2018-01-27T15:26:04.091Z,56.77
2018-01-27T15:28:31.570Z,53.80
2018-01-27T15:30:59.066Z,52.73
2018-01-27T15:33:26.601Z,54.37
2018-01-27T15:35:54.214Z,52.20
2018-01-27T15:38:21.700Z,57.57
2018-01-27T15:40:49.226Z,59.07
2018-01-27T15:43:16.779Z,55.20
2018-01-27T15:45:44.252Z,59.07
2018-01-27T15:48:11.876Z,52.47
2018-01-27T15:50:39.372Z,53.87
2018-01-27T15:53:06.915Z,56.73
2018-01-27T15:55:34.439Z,57.23
2018-01-27T15:58:01.967Z,53.80
2018-01-27T16:00:29.532Z,59.20
2018-01-27T16:02:57.071Z,53.60
2018-01-27T16:05:25.009Z,54.97
2018-01-27T16:07:52.540Z,51.70
2018-01-27T16:10:20.008Z,55.50
2018-01-27T16:12:47.501Z,55.03
2018-01-27T16:15:15.035Z,54.27
2018-01-27T16:17:42.565Z,59.50
2018-01-27T16:20:10.024Z,57.57
2018-01-27T16:22:37.508Z,57.57
2018-01-27T16:25:05.017Z,55.73
2018-01-27T16:27:32.583Z,52.53
2018-01-27T16:30:00.148Z,57.90
2018-01-27T16:32:27.716Z,56.13
2018-01-27T16:34:55.241Z,58.57
2018-01-27T16:37:22.697Z,56.70
2018-01-27T16:39:50.216Z,56.37
2018-01-27T16:42:17.694Z,60.20
2018-01-27T16:44:45.173Z,55.93
2018-01-27T16:47:12.712Z,56.47
2018-01-27T16:49:40.364Z,58.10
2018-01-27T16:52:07.930Z,58.13
2018-01-27T16:54:35.499Z,57.37
2018-01-27T16:57:03.003Z,58.83
2018-01-27T16:59:30.533Z,54.37
2018-01-27T17:01:58.085Z,102.50
2018-01-27T17:04:25.642Z,103.47
2018-01-27T17:06:53.117Z,106.03
2018-01-27T17:09:20.589Z,59.57
2018-01-27T17:11:48.139Z,55.40
2018-01-27T17:14:15.600Z,53.90
2018-01-27T17:16:43.118Z,51.30
2018-01-27T17:19:10.722Z,56.03
2018-01-27T17:21:38.191Z,53.57
2018-01-27T17:24:05.753Z,55.67
2018-01-27T17:26:33.216Z,53.03
2018-01-27T17:29:00.685Z,56.40
2018-01-27T17:31:28.232Z,49.20
2018-01-27T17:33:55.750Z,52.53
2018-01-27T17:36:23.219Z,51.33
2018-01-27T17:38:50.735Z,52.00
2018-01-27T17:41:18.342Z,52.10
2018-01-27T17:43:45.878Z,52.37
2018-01-27T17:46:13.386Z,50.43
2018-01-27T17:48:40.969Z,51.97
2018-01-27T17:51:08.546Z,49.43
2018-01-27T17:53:36.031Z,46.87
2018-01-27T17:56:03.579Z,47.63
2018-01-27T17:58:31.108Z,48.33
2018-01-27T18:00:58.587Z,51.63
2018-01-27T18:03:26.049Z,47.20
2018-01-27T18:05:53.540Z,49.00
2018-01-27T18:08:21.062Z,49.87
2018-01-27T18:10:48.585Z,50.03
2018-01-27T18:13:16.121Z,47.07
2018-01-27T18:15:43.742Z,46.67
2018-01-27T18:18:11.287Z,51.83
2018-01-27T18:20:38.800Z,51.90
2018-01-27T18:23:06.337Z,56.47
2018-01-27T18:25:33.881Z,53.57
2018-01-27T18:28:01.420Z,54.10
2018-01-27T18:30:28.972Z,52.87
2018-01-27T18:32:56.631Z,50.37
2018-01-27T18:35:24.190Z,53.33
2018-01-27T18:37:51.714Z,52.97
2018-01-27T18:40:19.197Z,50.17
2018-01-27T18:42:46.707Z,50.50
2018-01-27T18:45:14.300Z,51.57
2018-01-27T18:47:41.774Z,53.17
2018-01-27T18:50:09.348Z,50.03
2018-01-27T18:52:37.015Z,55.43
2018-01-27T18:55:04.542Z,55.30
2018-01-27T18:57:32.071Z,51.87
2018-01-27T18:59:59.597Z,53.60
2018-01-27T19:02:27.109Z,49.17
2018-01-27T19:04:54.625Z,50.90
2018-01-27T19:07:22.255Z,52.90
2018-01-27T19:09:49.745Z,52.47
2018-01-27T19:12:17.226Z,56.67
2018-01-27T19:14:44.805Z,51.27
2018-01-27T19:17:12.335Z,54.30
2018-01-27T19:19:39.837Z,52.60
2018-01-27T19:22:07.357Z,51.87
2018-01-27T19:24:34.936Z,49.30
2018-01-27T19:27:02.480Z,47.43
2018-01-27T19:29:30.084Z,48.63
2018-01-27T19:31:57.667Z,47.97
2018-01-27T19:34:25.232Z,45.23
2018-01-27T19:36:52.739Z,50.43
2018-01-27T19:39:20.204Z,45.47
2018-01-27T19:41:47.692Z,51.87
2018-01-27T19:44:15.206Z,51.60
2018-01-27T19:46:42.665Z,49.10
2018-01-27T19:49:10.151Z,47.57
2018-01-27T19:51:37.672Z,45.43
2018-01-27T19:54:05.203Z,49.27
2018-01-27T19:56:32.715Z,51.13
2018-01-27T19:59:00.457Z,47.63
2018-01-27T20:01:27.973Z,45.27
2018-01-27T20:03:55.503Z,42.93
2018-01-27T20:06:23.276Z,45.07
2018-01-27T20:08:50.804Z,44.87
2018-01-27T20:11:18.287Z,46.50
2018-01-27T20:13:45.787Z,46.07
2018-01-27T20:16:13.303Z,45.30
2018-01-27T20:18:40.944Z,42.23
2018-01-27T20:21:08.429Z,41.57
2018-01-27T20:23:35.955Z,42.30
2018-01-27T20:26:03.531Z,40.57
2018-01-27T20:28:31.050Z,41.83
2018-01-27T20:30:58.670Z,40.30
2018-01-27T20:33:26.172Z,43.00
2018-01-27T20:35:53.698Z,46.23
2018-01-27T20:38:21.248Z,42.83
2018-01-27T20:40:48.755Z,47.20
2018-01-27T20:43:16.324Z,44.87
2018-01-27T20:45:43.779Z,45.07
2018-01-27T20:48:11.324Z,42.80
2018-01-27T20:50:38.867Z,43.40
2018-01-27T20:53:06.436Z,44.43
2018-01-27T20:55:33.921Z,45.20
2018-01-27T20:58:01.426Z,46.77
2018-01-27T21:00:28.948Z,46.73
2018-01-27T21:02:56.466Z,45.47
2018-01-27T21:05:24.297Z,41.23
2018-01-27T21:07:51.791Z,42.87
2018-01-27T21:10:19.257Z,43.53
2018-01-27T21:12:46.745Z,44.37
2018-01-27T21:15:14.251Z,43.00
2018-01-27T21:17:41.828Z,41.93
2018-01-27T21:20:09.357Z,43.43
2018-01-27T21:22:36.911Z,40.63
2018-01-27T21:25:04.422Z,44.30
2018-01-27T21:27:31.933Z,45.53
2018-01-27T21:29:59.480Z,42.10
2018-01-27T21:32:27.013Z,44.70
2018-01-27T21:34:54.560Z,41.27
2018-01-27T21:37:22.014Z,44.30
2018-01-27T21:39:49.599Z,44.73
2018-01-27T21:42:17.907Z,42.13
2018-01-27T21:44:45.420Z,41.83
2018-01-27T21:47:12.896Z,39.07
2018-01-27T21:49:40.461Z,40.77
2018-01-27T21:52:08.186Z,39.10
2018-01-27T21:54:36.287Z,36.60
2018-01-27T21:57:03.773Z,37.67
2018-01-27T21:59:31.378Z,41.90
2018-01-27T22:01:58.950Z,40.47
2018-01-27T22:04:26.521Z,38.57
2018-01-27T22:06:54.096Z,37.13
2018-01-27T22:09:21.604Z,34.73
2018-01-27T22:11:49.148Z,37.50
2018-01-27T22:14:16.668Z,34.17
2018-01-27T22:16:44.121Z,36.00
2018-01-27T22:19:11.743Z,38.90
2018-01-27T22:21:39.341Z,36.13
2018-01-27T22:24:06.870Z,36.60
2018-01-27T22:26:34.465Z,37.43
2018-01-27T22:29:01.991Z,33.47
2018-01-27T22:31:29.487Z,35.13
2018-01-27T22:33:57.017Z,33.77
2018-01-27T22:36:24.519Z,31.33
2018-01-27T22:38:52.035Z,35.83
2018-01-27T22:41:19.611Z,36.07
2018-01-27T22:43:47.114Z,34.10
2018-01-27T22:46:14.701Z,34.53
2018-01-27T22:48:42.209Z,33.20
2018-01-27T22:51:09.737Z,30.33
2018-01-27T22:53:37.285Z,32.10
2018-01-27T22:56:04.943Z,31.40
2018-01-27T22:58:32.456Z,33.27
2018-01-27T23:01:05.664Z,30.57
2018-01-27T23:03:33.171Z,31.63
2018-01-27T23:06:00.723Z,30.90
2018-01-27T23:08:28.226Z,31.77
2018-01-27T23:10:55.735Z,32.17
2018-01-27T23:13:23.350Z,30.27
2018-01-27T23:15:53.716Z,30.40
2018-01-27T23:18:21.277Z,33.37
2018-01-27T23:20:48.832Z,30.93
2018-01-27T23:23:16.289Z,31.00
2018-01-27T23:25:43.842Z,29.63
2018-01-27T23:28:11.323Z,31.13
2018-01-27T23:30:38.855Z,29.17
2018-01-27T23:33:06.398Z,30.87
2018-01-27T23:35:33.950Z,30.27
2018-01-27T23:38:01.401Z,29.63
2018-01-27T23:40:28.891Z,26.93
2018-01-27T23:42:56.400Z,26.50
2018-01-27T23:45:23.860Z,26.90
2018-01-27T23:47:51.359Z,24.67
2018-01-27T23:50:18.882Z,25.13
2018-01-27T23:52:46.351Z,24.53
2018-01-27T23:55:13.867Z,26.30
2018-01-27T23:57:41.364Z,27.57
